Time;durP1;ratioP1;P1;durP2;ratioP2;P2;SDS_P1;SDS_P2;PMS_P1;PMS_P2;Temp;Humidity;BMP_temperature;BMP_pressure;BME280_temperature;BME280_humidity;BME280_pressure;Samples;Min_cycle;Max_cycle;Signal;HPM_P1;HPM_P2
2024/02/09 09:35:57;;;;;;;10.80;7.80;;;;;;;2.97;84.54;98183.07;80213;1302;3013179;-67
2024/02/09 09:38:24;;;;;;;10.30;7.70;;;;;;;2.72;85.51;98182.22;79270;1300;3014351;-67
2024/02/09 09:40:53;;;;;;;12.00;8.20;;;;;;;2.71;86.05;98178.77;79317;1301;3012283;-68
2024/02/09 09:43:24;;;;;;;12.40;9.80;;;;;;;2.73;85.95;98177.15;77976;1301;3053064;-69
2024/02/09 09:45:56;;;;;;;12.50;9.10;;;;;;;2.61;86.46;98173.74;79386;1302;3011632;-72
2024/02/09 09:48:24;;;;;;;12.00;9.00;;;;;;;2.53;86.71;98169.11;77963;1299;3049401;-67
2024/02/09 09:50:52;;;;;;;9.10;5.80;;;;;;;2.47;87.18;98162.65;79539;1298;3015375;-71
2024/02/09 09:53:27;;;;;;;6.70;4.60;;;;;;;2.96;86.07;98158.18;79608;1296;3012960;-70
2024/02/09 09:55:59;;;;;;;10.80;6.60;;;;;;;3.58;83.97;98153.10;78169;1300;3050138;-68
2024/02/09 09:58:26;;;;;;;8.50;5.60;;;;;;;3.64;82.72;98148.97;79459;1299;3011587;-69
2024/02/09 10:00:53;;;;;;;9.20;6.20;;;;;;;3.56;82.85;98143.51;78345;1295;3026135;-70
2024/02/09 10:03:20;;;;;;;11.50;7.40;;;;;;;3.35;83.23;98135.77;79656;1296;3018693;-65
2024/02/09 10:05:47;;;;;;;11.60;8.10;;;;;;;3.22;83.98;98134.23;79655;1299;3013087;-67
2024/02/09 10:08:15;;;;;;;10.40;7.70;;;;;;;3.13;84.62;98136.91;78364;1299;3028844;-67
2024/02/09 10:10:41;;;;;;;9.10;6.80;;;;;;;3.05;84.85;98134.58;79670;1295;3019200;-67
2024/02/09 10:13:11;;;;;;;8.80;6.80;;;;;;;2.91;85.30;98138.04;79598;1296;3011750;-67
2024/02/09 10:15:41;;;;;;;8.80;6.40;;;;;;;2.89;85.93;98132.40;78465;1301;3052390;-68
2024/02/09 10:18:10;;;;;;;9.80;6.20;;;;;;;2.83;86.04;98131.36;79588;1295;3013674;-68
2024/02/09 10:20:39;;;;;;;8.10;5.10;;;;;;;2.75;86.42;98133.61;78356;1298;3026512;-67
2024/02/09 10:23:06;;;;;;;7.80;5.50;;;;;;;3.21;85.61;98138.37;79594;1299;3011855;-67
2024/02/09 10:25:33;;;;;;;7.00;5.00;;;;;;;3.78;83.62;98126.75;79750;1295;3011725;-67
2024/02/09 10:28:02;;;;;;;8.60;4.70;;;;;;;3.88;82.81;98119.11;78386;1301;3049766;-67
2024/02/09 10:30:29;;;;;;;8.10;5.10;;;;;;;3.82;82.70;98120.48;79547;1298;3013874;-67
2024/02/09 10:32:56;;;;;;;10.20;6.00;;;;;;;3.70;83.03;98120.10;79881;1297;3013390;-67
2024/02/09 10:35:24;;;;;;;14.30;6.70;;;;;;;3.58;83.35;98123.65;78489;1300;3050449;-68
2024/02/09 10:37:51;;;;;;;11.60;6.00;;;;;;;3.37;83.96;98113.85;79444;1300;3013542;-71
2024/02/09 10:40:21;;;;;;;8.60;5.20;;;;;;;3.24;84.75;98107.09;79486;1296;3011670;-69
2024/02/09 10:42:50;;;;;;;9.00;5.80;;;;;;;3.17;85.40;98095.20;78352;1301;3050335;-73
2024/02/09 10:45:17;;;;;;;9.70;6.90;;;;;;;3.06;85.83;98088.66;79768;1300;3013752;-68
2024/02/09 10:47:45;;;;;;;16.20;8.20;;;;;;;3.03;86.37;98088.29;79631;1300;3011801;-69
2024/02/09 10:50:14;;;;;;;10.50;6.30;;;;;;;3.01;86.50;98088.23;78273;1300;3049862;-68
2024/02/09 10:52:44;;;;;;;9.80;6.80;;;;;;;3.45;85.64;98090.08;79374;1295;3013912;-69
2024/02/09 10:55:14;;;;;;;11.10;6.60;;;;;;;4.08;83.38;98082.52;78364;1299;3053079;-69
2024/02/09 11:00:10;;;;;;;11.40;7.40;;;;;;;4.22;82.33;98083.27;80305;1304;3012983;-68
2024/02/09 11:02:37;;;;;;;11.50;8.10;;;;;;;4.09;82.95;98081.05;79242;1302;3011319;-65
2024/02/09 11:05:04;;;;;;;27.20;12.30;;;;;;;3.97;83.06;98081.35;79367;1302;3013018;-68
2024/02/09 11:07:33;;;;;;;23.80;12.80;;;;;;;3.79;83.55;98077.33;77915;1307;3052591;-67
2024/02/09 11:10:00;;;;;;;25.00;13.80;;;;;;;3.73;84.23;98071.43;79269;1305;3019204;-67
2024/02/09 11:12:27;;;;;;;21.50;13.20;;;;;;;3.63;84.32;98072.67;78691;1302;3012988;-68
2024/02/09 11:14:55;;;;;;;20.10;12.70;;;;;;;3.53;84.85;98074.27;78427;1295;3026711;-68
2024/02/09 11:17:21;;;;;;;16.90;11.40;;;;;;;3.50;85.22;98074.41;79776;1296;3018871;-68
2024/02/09 11:19:49;;;;;;;14.90;7.60;;;;;;;3.48;85.37;98076.23;79552;1296;3013639;-69
2024/02/09 11:22:17;;;;;;;15.60;9.10;;;;;;;3.94;84.65;98073.20;78305;1295;3052048;-69
2024/02/09 11:24:46;;;;;;;13.60;8.40;;;;;;;4.47;82.35;98076.30;79740;1295;3013287;-69
2024/02/09 11:27:13;;;;;;;12.20;8.80;;;;;;;4.64;81.52;98083.80;79551;1295;3011835;-69
2024/02/09 11:29:41;;;;;;;12.70;8.10;;;;;;;4.56;81.42;98080.96;78349;1300;3049252;-72
2024/02/09 11:32:07;;;;;;;14.40;9.50;;;;;;;4.43;81.77;98081.75;79680;1311;3013868;-71
2024/02/09 11:34:36;;;;;;;16.80;10.20;;;;;;;4.35;82.15;98081.84;79755;1301;3011711;-73
2024/02/09 11:37:04;;;;;;;19.50;11.20;;;;;;;4.17;82.53;98085.98;78298;1300;3052736;-67
2024/02/09 11:39:31;;;;;;;17.70;11.10;;;;;;;4.04;83.13;98086.34;79509;1295;3013030;-67
2024/02/09 11:41:57;;;;;;;19.40;12.10;;;;;;;3.93;83.77;98085.04;79604;1296;3011976;-72
2024/02/09 11:44:25;;;;;;;17.80;12.00;;;;;;;3.85;84.37;98084.27;79058;1296;3025736;-70
2024/02/09 11:46:52;;;;;;;18.40;11.10;;;;;;;3.80;84.55;98090.26;79659;1295;3013238;-69
2024/02/09 11:49:20;;;;;;;23.60;14.70;;;;;;;3.69;84.97;98097.10;79504;1301;3011653;-73
2024/02/09 11:51:48;;;;;;;13.60;7.10;;;;;;;3.65;85.64;98100.63;78431;1299;3051190;-70
2024/02/09 11:54:15;;;;;;;15.40;9.80;;;;;;;4.15;84.49;98095.08;79663;1295;3013034;-70
2024/02/09 11:56:44;;;;;;;15.80;9.50;;;;;;;4.74;81.95;98091.89;79674;1300;3013026;-68
2024/02/09 11:59:12;;;;;;;17.30;9.20;;;;;;;4.91;80.66;98090.36;79607;1299;3048939;-71
2024/02/09 12:01:48;;;;;;;16.00;9.00;;;;;;;4.82;80.60;98089.05;79482;1301;3013497;-69
2024/02/09 12:04:16;;;;;;;18.80;10.20;;;;;;;4.67;80.96;98097.21;78108;1301;3053171;-68
2024/02/09 12:06:42;;;;;;;17.70;11.70;;;;;;;4.53;81.36;98105.63;79323;1301;3013546;-69
2024/02/09 12:09:10;;;;;;;21.00;12.90;;;;;;;4.36;82.55;98107.25;79385;1301;3011997;-67
2024/02/09 12:11:38;;;;;;;19.50;11.80;;;;;;;4.26;83.27;98106.95;78271;1301;3027177;-67
2024/02/09 12:14:05;;;;;;;21.40;12.80;;;;;;;4.17;83.69;98113.00;79501;1301;3013043;-67
2024/02/09 12:16:32;;;;;;;25.00;13.90;;;;;;;4.11;84.17;98124.77;79264;1295;3011420;-69
2024/02/09 12:19:00;;;;;;;27.00;14.80;;;;;;;4.11;84.41;98128.09;78251;1301;3052121;-67
2024/02/09 12:21:28;;;;;;;30.80;15.20;;;;;;;3.92;84.73;98126.03;79447;1295;3018403;-69
2024/02/09 12:23:54;;;;;;;22.00;11.00;;;;;;;3.94;85.26;98124.31;79516;1295;3012920;-69
2024/02/09 12:26:22;;;;;;;21.30;11.80;;;;;;;4.34;84.14;98119.52;78191;1300;3057837;-69
2024/02/09 12:28:49;;;;;;;24.00;12.10;;;;;;;5.01;82.11;98114.63;79520;1295;3012985;-67
2024/02/09 12:31:16;;;;;;;29.80;16.50;;;;;;;5.19;81.02;98112.71;79473;1295;3011717;-70
2024/02/09 12:33:51;;;;;;;27.50;14.80;;;;;;;5.11;80.52;98113.68;78301;1295;3052072;-71
2024/02/09 12:36:20;;;;;;;29.10;17.10;;;;;;;4.97;81.19;98112.62;79362;1301;3013387;-67
2024/02/09 12:38:54;;;;;;;41.50;19.00;;;;;;;4.82;81.50;98114.66;78196;1301;3069719;-68
2024/02/09 12:41:26;;;;;;;42.10;19.80;;;;;;;4.69;81.76;98125.31;78743;1295;3012496;-69
2024/02/09 12:43:56;;;;;;;40.70;19.50;;;;;;;4.53;82.18;98122.95;79255;1297;3013703;-69
2024/02/09 12:46:24;;;;;;;42.20;20.60;;;;;;;4.42;83.07;98113.68;78367;1295;3056673;-68
2024/02/09 12:48:51;;;;;;;48.80;21.90;;;;;;;4.31;83.67;98115.34;79617;1295;3019494;-68
2024/02/09 12:51:18;;;;;;;54.70;23.10;;;;;;;4.26;83.95;98110.61;79455;1295;3011877;-69
2024/02/09 12:53:46;;;;;;;54.20;24.60;;;;;;;4.21;84.31;98108.80;78249;1299;3026687;-69
2024/02/09 12:56:12;;;;;;;53.30;23.40;;;;;;;4.18;84.25;98113.63;79470;1296;3013574;-68
2024/02/09 12:58:39;;;;;;;44.00;18.00;;;;;;;4.06;84.60;98116.58;79610;1300;3011638;-68
2024/02/09 13:01:07;;;;;;;32.90;15.20;;;;;;;4.51;83.72;98125.98;78320;1301;3028715;-70
2024/02/09 13:03:34;;;;;;;43.60;20.40;;;;;;;5.13;82.07;98126.21;79518;1295;3013461;-71
2024/02/09 13:06:04;;;;;;;50.00;23.30;;;;;;;5.27;80.59;98124.85;79523;1295;3013499;-71
2024/02/09 13:08:33;;;;;;;48.00;21.50;;;;;;;5.08;80.59;98124.92;78375;1301;3052595;-68
2024/02/09 13:10:59;;;;;;;49.90;23.00;;;;;;;4.96;80.94;98122.74;79637;1296;3013470;-69
2024/02/09 13:13:26;;;;;;;45.60;21.70;;;;;;;4.79;81.53;98116.09;79471;1299;3011881;-71
2024/02/09 13:15:55;;;;;;;44.00;19.90;;;;;;;4.65;82.00;98121.02;78377;1295;3028545;-72
2024/02/09 13:18:22;;;;;;;40.10;18.70;;;;;;;4.55;82.45;98113.48;79606;1301;3013057;-70
2024/02/09 13:20:48;;;;;;;45.60;19.50;;;;;;;4.42;82.96;98113.89;79548;1295;3011668;-69
2024/02/09 13:23:21;;;;;;;42.50;20.20;;;;;;;4.36;83.48;98113.16;78193;1301;3053693;-69
2024/02/09 13:25:48;;;;;;;42.40;20.40;;;;;;;4.24;83.65;98117.49;79406;1300;3011576;-68
2024/02/09 13:28:17;;;;;;;41.00;20.70;;;;;;;4.16;83.94;98123.63;78305;1300;3068840;-70
2024/02/09 13:30:43;;;;;;;49.60;23.70;;;;;;;4.10;84.09;98128.31;79426;1295;3012885;-67
2024/02/09 13:33:10;;;;;;;54.50;25.30;;;;;;;4.00;84.21;98127.98;79575;1301;3011637;-66
2024/02/09 13:35:40;;;;;;;35.70;16.40;;;;;;;3.93;84.83;98129.91;78127;1300;3025060;-68
2024/02/09 13:38:07;;;;;;;32.40;17.00;;;;;;;4.51;83.86;98134.52;79640;1296;3011901;-67
2024/02/09 13:40:33;;;;;;;37.10;16.80;;;;;;;5.09;81.40;98136.17;79522;1300;3011665;-67
2024/02/09 13:43:01;;;;;;;43.20;18.20;;;;;;;5.10;80.17;98135.94;78246;1301;3069795;-66
2024/02/09 13:45:28;;;;;;;37.50;18.30;;;;;;;5.10;80.91;98133.20;79565;1295;3013019;-66
2024/02/09 13:47:56;;;;;;;39.30;18.90;;;;;;;4.90;81.08;98134.70;79490;1300;3011905;-68
2024/02/09 13:50:25;;;;;;;42.00;20.50;;;;;;;4.72;81.80;98139.90;78474;1300;3054209;-67
2024/02/09 13:52:53;;;;;;;39.60;19.80;;;;;;;4.50;82.13;98144.83;79523;1295;3013507;-66
2024/02/09 13:55:24;;;;;;;39.00;20.00;;;;;;;4.36;82.72;98142.27;78728;1304;3011494;-66
2024/02/09 13:57:51;;;;;;;47.20;20.70;;;;;;;4.23;83.28;98143.52;79647;1298;3013037;-66
2024/02/09 14:00:18;;;;;;;42.90;20.70;;;;;;;4.13;83.74;98140.63;79563;1295;3011844;-67
2024/02/09 14:02:46;;;;;;;46.00;22.50;;;;;;;4.00;84.24;98151.20;78224;1301;3056731;-67
2024/02/09 14:05:14;;;;;;;43.50;21.00;;;;;;;3.99;84.61;98146.90;79527;1300;3013076;-65
2024/02/09 14:07:42;;;;;;;37.60;20.30;;;;;;;3.93;84.52;98150.88;79501;1301;3011724;-67
2024/02/09 14:10:13;;;;;;;30.80;13.50;;;;;;;3.91;84.78;98150.13;78302;1301;3052703;-66
2024/02/09 14:12:39;;;;;;;32.90;16.70;;;;;;;4.39;83.43;98150.78;79488;1301;3013403;-68
2024/02/09 14:15:10;;;;;;;37.20;16.90;;;;;;;4.89;81.27;98156.60;78977;1295;3011686;-67
2024/02/09 14:17:37;;;;;;;35.20;16.60;;;;;;;4.88;80.46;98157.70;79558;1295;3013035;-66
2024/02/09 14:20:05;;;;;;;33.90;16.00;;;;;;;4.75;80.48;98157.58;79629;1295;3011470;-68
2024/02/09 14:22:33;;;;;;;34.60;15.60;;;;;;;4.57;81.08;98159.65;78253;1299;3053936;-66
2024/02/09 14:25:00;;;;;;;35.80;17.50;;;;;;;4.35;82.04;98172.33;79802;1298;3013451;-66
2024/02/09 14:27:29;;;;;;;38.30;18.50;;;;;;;4.29;82.58;98174.22;79471;1300;3011866;-69
2024/02/09 14:29:58;;;;;;;41.20;18.80;;;;;;;4.14;82.90;98180.40;78044;1295;3068858;-66
2024/02/09 14:32:25;;;;;;;42.90;18.50;;;;;;;4.04;83.54;98191.19;79910;1295;3013212;-70
2024/02/09 14:34:51;;;;;;;49.10;21.60;;;;;;;3.96;83.78;98188.87;79549;1295;3011690;-70
2024/02/09 14:37:22;;;;;;;46.10;20.00;;;;;;;3.87;84.25;98188.79;78201;1296;3052363;-68
2024/02/09 14:39:49;;;;;;;44.70;19.10;;;;;;;3.80;84.46;98196.61;79581;1301;3011552;-67
2024/02/09 14:42:18;;;;;;;40.10;18.40;;;;;;;3.77;84.42;98198.54;78952;1300;3011890;-69
2024/02/09 14:44:46;;;;;;;46.60;20.40;;;;;;;3.63;84.41;98202.01;79657;1295;3013009;-68
2024/02/09 14:47:17;;;;;;;25.60;11.90;;;;;;;3.65;85.22;98205.37;79661;1295;3011773;-67
2024/02/09 14:49:47;;;;;;;39.40;17.80;;;;;;;4.25;83.16;98208.59;78623;1296;3057308;-68
2024/02/09 14:52:14;;;;;;;36.50;18.50;;;;;;;4.80;80.83;98204.33;79594;1295;3011708;-69
2024/02/09 14:54:42;;;;;;;44.50;19.40;;;;;;;4.83;79.89;98205.21;79564;1301;3011704;-69
2024/02/09 14:57:10;;;;;;;34.20;18.20;;;;;;;4.70;80.02;98202.83;78218;1301;3052460;-69
2024/02/09 14:59:37;;;;;;;42.90;21.80;;;;;;;4.32;80.42;98199.52;79555;1301;3013732;-70
2024/02/09 15:02:04;;;;;;;34.90;18.70;;;;;;;4.05;81.46;98212.96;79564;1295;3011480;-69
2024/02/09 15:04:39;;;;;;;36.70;20.30;;;;;;;3.78;82.63;98217.01;78355;1300;3056540;-69
2024/02/09 15:07:08;;;;;;;43.40;20.20;;;;;;;3.62;83.24;98222.14;78999;1295;3011732;-69
2024/02/09 15:09:35;;;;;;;41.80;20.20;;;;;;;3.47;84.01;98221.19;79603;1295;3013317;-69
2024/02/09 15:12:02;;;;;;;45.80;20.70;;;;;;;3.42;84.60;98222.51;79461;1296;3011634;-67
2024/02/09 15:14:30;;;;;;;45.80;20.70;;;;;;;3.40;84.91;98224.33;78290;1300;3054079;-68
2024/02/09 15:16:58;;;;;;;44.20;21.00;;;;;;;3.34;84.76;98233.29;79532;1300;3018392;-69
2024/02/09 15:19:24;;;;;;;44.30;21.20;;;;;;;3.23;84.88;98239.71;79658;1297;3011599;-68
2024/02/09 15:21:53;;;;;;;39.80;16.90;;;;;;;3.13;85.52;98240.91;78376;1300;3027444;-66
2024/02/09 15:24:23;;;;;;;27.90;14.60;;;;;;;3.53;85.48;98247.89;79525;1300;3013723;-69
2024/02/09 15:26:51;;;;;;;32.10;16.30;;;;;;;4.17;83.12;98247.67;78264;1299;3050355;-69
2024/02/09 15:29:19;;;;;;;28.50;15.40;;;;;;;4.31;82.24;98254.02;79530;1301;3013364;-68
2024/02/09 15:31:48;;;;;;;26.40;15.00;;;;;;;3.99;82.25;98259.21;79490;1300;3013321;-68
2024/02/09 15:34:19;;;;;;;39.30;17.50;;;;;;;3.84;82.93;98262.42;78324;1295;3050654;-67
2024/02/09 15:36:45;;;;;;;33.80;17.40;;;;;;;3.66;83.53;98267.68;79574;1299;3011754;-69
2024/02/09 15:39:15;;;;;;;36.50;17.80;;;;;;;3.51;84.04;98272.26;79099;1299;3011648;-69
2024/02/09 15:41:45;;;;;;;37.00;17.50;;;;;;;3.45;84.64;98279.30;79475;1300;3019310;-67
2024/02/09 15:44:14;;;;;;;44.10;16.80;;;;;;;3.44;85.05;98283.35;79156;1295;3011373;-68
2024/02/09 15:46:42;;;;;;;37.10;18.30;;;;;;;3.43;85.11;98284.59;79707;1300;3013114;-68
2024/02/09 15:49:08;;;;;;;39.50;17.50;;;;;;;3.43;84.98;98290.29;79543;1295;3012177;-68
2024/02/09 15:51:37;;;;;;;42.60;18.20;;;;;;;3.45;84.87;98293.98;78381;1301;3051659;-68
2024/02/09 15:54:04;;;;;;;30.00;11.90;;;;;;;3.45;85.03;98300.43;79590;1296;3012928;-71
2024/02/09 15:56:35;;;;;;;35.40;15.90;;;;;;;3.91;83.59;98312.77;79560;1296;3011648;-68
2024/02/09 15:59:04;;;;;;;31.20;14.80;;;;;;;4.47;81.71;98316.81;78316;1297;3049469;-70
2024/02/09 16:01:34;;;;;;;34.90;15.80;;;;;;;4.59;80.85;98315.43;79445;1301;3018648;-69
2024/02/09 16:04:04;;;;;;;29.30;15.20;;;;;;;4.49;81.00;98315.63;79161;1300;3011560;-69
2024/02/09 16:06:31;;;;;;;37.90;16.80;;;;;;;4.35;81.32;98317.61;79640;1300;3013389;-68
2024/02/09 16:08:58;;;;;;;40.10;18.10;;;;;;;4.19;81.54;98328.83;79533;1300;3013192;-68
2024/02/09 16:11:32;;;;;;;37.40;18.10;;;;;;;3.96;82.05;98325.70;78240;1295;3048886;-68
2024/02/09 16:14:01;;;;;;;34.30;17.30;;;;;;;3.75;82.82;98324.88;79684;1296;3013525;-67
2024/02/09 16:16:30;;;;;;;42.10;18.60;;;;;;;3.58;83.46;98322.80;78231;1301;3050527;-67
2024/02/09 16:18:56;;;;;;;39.90;17.50;;;;;;;3.53;84.10;98324.41;79861;1295;3013413;-69
2024/02/09 16:21:25;;;;;;;39.50;18.50;;;;;;;3.51;84.21;98322.63;79674;1301;3012122;-67
2024/02/09 16:23:53;;;;;;;38.70;17.40;;;;;;;3.45;84.25;98323.42;78295;1300;3050330;-67
2024/02/09 16:26:20;;;;;;;26.10;12.20;;;;;;;3.35;84.58;98321.33;79682;1300;3012850;-67
2024/02/09 16:28:47;;;;;;;31.90;14.00;;;;;;;3.82;83.94;98321.04;79530;1295;3011924;-66
2024/02/09 16:31:15;;;;;;;28.40;13.90;;;;;;;4.49;82.12;98326.06;78320;1300;3049614;-67
2024/02/09 16:33:43;;;;;;;37.80;18.50;;;;;;;4.63;80.71;98339.74;79659;1299;3013774;-65
2024/02/09 16:36:21;;;;;;;23.70;12.90;;;;;;;4.49;80.41;98343.07;79264;1300;3011845;-66
2024/02/09 16:38:49;;;;;;;26.90;14.10;;;;;;;4.31;80.72;98333.41;78306;1296;3068165;-66
2024/02/09 16:41:19;;;;;;;34.10;15.10;;;;;;;4.08;81.91;98336.37;79688;1299;3013225;-66
2024/02/09 16:43:47;;;;;;;28.70;15.00;;;;;;;3.93;82.64;98338.54;78333;1300;3047545;-65
2024/02/09 16:46:13;;;;;;;30.80;14.20;;;;;;;3.66;83.01;98335.39;79740;1296;3013211;-65
2024/02/09 16:48:40;;;;;;;32.30;15.00;;;;;;;3.51;83.76;98335.77;79643;1300;3013727;-68
2024/02/09 16:51:08;;;;;;;35.70;15.90;;;;;;;3.39;84.32;98336.20;78347;1300;3028423;-66
2024/02/09 16:53:35;;;;;;;34.80;14.60;;;;;;;3.29;84.89;98339.27;79520;1300;3018759;-66
2024/02/09 16:56:01;;;;;;;33.80;16.20;;;;;;;3.28;85.14;98347.28;79719;1294;3011738;-66
2024/02/09 16:58:30;;;;;;;24.00;10.70;;;;;;;3.12;85.74;98351.69;78234;1301;3026103;-66
2024/02/09 17:00:56;;;;;;;23.00;10.50;;;;;;;3.56;84.89;98346.94;79507;1300;3012941;-66
2024/02/09 17:03:23;;;;;;;27.00;12.50;;;;;;;4.22;82.63;98357.64;79366;1296;3013313;-66
2024/02/09 17:05:51;;;;;;;21.30;12.00;;;;;;;4.39;81.49;98365.59;78210;1301;3028421;-68
2024/02/09 17:08:18;;;;;;;22.60;12.20;;;;;;;4.24;81.21;98374.18;79701;1300;3013762;-66
2024/02/09 17:10:44;;;;;;;23.20;12.40;;;;;;;4.14;81.70;98376.28;79558;1301;3011750;-68
2024/02/09 17:13:13;;;;;;;23.90;12.90;;;;;;;3.99;82.11;98373.88;78377;1301;3026835;-68
2024/02/09 17:15:39;;;;;;;26.10;13.40;;;;;;;3.91;82.29;98379.84;79534;1299;3014797;-66
2024/02/09 17:18:07;;;;;;;30.30;14.60;;;;;;;3.74;82.60;98394.02;79537;1300;3011713;-67
2024/02/09 17:20:36;;;;;;;25.60;13.20;;;;;;;3.57;83.12;98396.42;78238;1309;3052006;-67
2024/02/09 17:23:03;;;;;;;29.70;13.80;;;;;;;3.40;84.02;98399.34;79597;1301;3015099;-66
2024/02/09 17:25:30;;;;;;;25.20;13.60;;;;;;;3.34;84.86;98398.77;79459;1298;3011973;-66
2024/02/09 17:27:58;;;;;;;29.30;14.30;;;;;;;3.30;85.12;98391.87;78297;1300;3048837;-67
2024/02/09 17:30:24;;;;;;;23.40;10.80;;;;;;;3.26;85.50;98391.02;79443;1302;3013085;-68
2024/02/09 17:32:51;;;;;;;26.90;12.90;;;;;;;3.77;84.25;98391.13;79615;1301;3011653;-67
2024/02/09 17:35:21;;;;;;;24.50;12.30;;;;;;;4.39;82.09;98398.76;78308;1301;3026055;-67
2024/02/09 17:37:48;;;;;;;25.70;12.20;;;;;;;4.54;80.99;98399.15;79599;1297;3012843;-67
2024/02/09 17:40:18;;;;;;;21.60;11.50;;;;;;;4.47;80.98;98398.30;78259;1295;3028927;-66
2024/02/09 17:42:48;;;;;;;21.30;12.40;;;;;;;4.43;81.38;98396.09;79893;1295;3013105;-67
2024/02/09 17:45:16;;;;;;;22.20;12.80;;;;;;;4.24;81.25;98391.73;78369;1301;3049869;-66
2024/02/09 17:47:44;;;;;;;24.40;12.60;;;;;;;3.99;81.41;98388.47;79486;1302;3013149;-67
2024/02/09 17:50:14;;;;;;;23.20;12.60;;;;;;;3.83;81.79;98379.91;79485;1300;3011569;-67
2024/02/09 17:52:41;;;;;;;21.00;10.90;;;;;;;3.70;82.07;98379.86;78392;1300;3051822;-67
2024/02/09 17:55:08;;;;;;;19.70;10.70;;;;;;;3.65;82.30;98380.11;79588;1301;3012878;-68
2024/02/09 17:57:36;;;;;;;20.70;11.10;;;;;;;3.59;82.36;98389.08;79524;1295;3011782;-67
2024/02/09 18:00:08;;;;;;;17.60;10.20;;;;;;;3.52;82.22;98391.12;78334;1299;3049373;-66
2024/02/09 18:02:35;;;;;;;23.20;11.20;;;;;;;3.37;82.29;98390.31;79658;1295;3011781;-71
2024/02/09 18:05:03;;;;;;;18.00;10.50;;;;;;;3.26;82.57;98389.29;78351;1299;3049850;-68
2024/02/09 18:07:30;;;;;;;12.10;6.80;;;;;;;3.25;82.95;98389.16;80027;1296;3018098;-66
2024/02/09 18:09:57;;;;;;;15.70;8.10;;;;;;;3.81;82.16;98390.02;80606;1295;3011952;-69
2024/02/09 18:12:25;;;;;;;13.60;8.30;;;;;;;4.35;79.81;98399.44;78510;1295;3026768;-67
2024/02/09 18:14:51;;;;;;;16.70;9.40;;;;;;;4.35;79.13;98404.45;79576;1295;3018788;-67
2024/02/09 18:17:18;;;;;;;15.10;9.40;;;;;;;4.19;79.65;98409.64;79508;1298;3013130;-69
2024/02/09 18:19:46;;;;;;;20.00;9.50;;;;;;;4.00;79.90;98411.45;78401;1301;3026159;-67
2024/02/09 18:22:16;;;;;;;18.60;10.40;;;;;;;3.93;80.70;98420.67;79574;1302;3018705;-67
2024/02/09 18:24:46;;;;;;;19.70;10.30;;;;;;;3.71;80.84;98425.35;79253;1302;3011609;-67
2024/02/09 18:27:13;;;;;;;21.50;11.10;;;;;;;3.59;81.48;98425.79;79518;1296;3013747;-67
2024/02/09 18:29:40;;;;;;;20.40;10.80;;;;;;;3.41;81.74;98424.05;79496;1300;3011748;-68
2024/02/09 18:32:08;;;;;;;19.00;11.20;;;;;;;3.29;82.40;98426.85;78480;1302;3049116;-73
2024/02/09 18:34:35;;;;;;;18.80;11.80;;;;;;;3.13;82.62;98434.01;79457;1296;3012924;-67
2024/02/09 18:37:02;;;;;;;21.90;13.00;;;;;;;3.04;83.36;98434.59;79353;1298;3011676;-68
2024/02/09 18:39:30;;;;;;;20.80;11.10;;;;;;;3.05;83.68;98431.63;78444;1300;3029055;-70
2024/02/09 18:41:58;;;;;;;21.20;11.80;;;;;;;2.92;83.48;98431.36;79729;1298;3012960;-74
2024/02/09 18:44:25;;;;;;;15.10;8.00;;;;;;;2.72;84.40;98428.77;79698;1294;3011554;-67
2024/02/09 18:46:54;;;;;;;17.40;9.80;;;;;;;3.17;84.00;98435.91;78353;1301;3050005;-67
2024/02/09 18:49:22;;;;;;;17.40;9.40;;;;;;;3.78;82.24;98434.70;79679;1296;3014898;-73
2024/02/09 18:51:49;;;;;;;17.20;9.40;;;;;;;3.85;80.93;98436.48;79572;1302;3011345;-67
2024/02/09 18:54:17;;;;;;;17.00;9.70;;;;;;;3.66;81.14;98440.49;78461;1302;3050910;-66
2024/02/09 18:56:44;;;;;;;15.30;8.70;;;;;;;3.52;81.72;98442.58;79769;1301;3012726;-75
2024/02/09 18:59:11;;;;;;;14.40;9.20;;;;;;;3.38;82.04;98440.48;79671;1301;3013896;-75
2024/02/09 19:01:43;;;;;;;16.00;8.70;;;;;;;3.06;82.27;98446.42;78292;1301;3029281;-71
2024/02/09 19:04:11;;;;;;;15.00;8.70;;;;;;;2.88;83.49;98452.61;79776;1299;3011729;-72
2024/02/09 19:06:43;;;;;;;15.80;9.30;;;;;;;2.68;84.23;98453.18;78725;1309;3049277;-74
2024/02/09 19:09:10;;;;;;;17.20;9.00;;;;;;;2.45;85.29;98452.98;79505;1301;3011675;-73
2024/02/09 19:11:38;;;;;;;16.20;8.90;;;;;;;2.43;85.84;98456.67;78418;1301;3051321;-70
2024/02/09 19:14:05;;;;;;;11.00;6.40;;;;;;;2.36;85.87;98464.41;79555;1301;3019193;-67
2024/02/09 19:16:33;;;;;;;12.90;7.60;;;;;;;2.82;85.33;98474.52;79530;1301;3013388;-63
2024/02/09 19:19:01;;;;;;;13.20;7.40;;;;;;;3.30;82.91;98478.73;78370;1300;3050128;-64
2024/02/09 19:21:28;;;;;;;13.40;7.90;;;;;;;3.43;82.40;98472.93;79471;1301;3014191;-65
2024/02/09 19:23:55;;;;;;;12.40;7.50;;;;;;;3.19;82.33;98470.41;79318;1295;3011633;-66
2024/02/09 19:26:23;;;;;;;17.00;8.40;;;;;;;3.06;83.16;98473.78;78306;1301;3052122;-66
2024/02/09 19:28:53;;;;;;;9.80;6.80;;;;;;;2.95;83.58;98468.20;79881;1300;3012914;-66
2024/02/09 19:31:28;;;;;;;14.10;7.80;;;;;;;2.75;84.12;98469.82;78812;1295;3011561;-65
2024/02/09 19:33:57;;;;;;;11.50;7.40;;;;;;;2.63;84.61;98473.80;78749;1299;3011887;-66
2024/02/09 19:36:24;;;;;;;14.50;8.00;;;;;;;2.54;84.83;98473.87;79360;1301;3013370;-66
2024/02/09 19:38:51;;;;;;;14.60;7.80;;;;;;;2.36;85.28;98479.80;79415;1300;3011901;-64
2024/02/09 19:41:21;;;;;;;11.40;6.00;;;;;;;2.23;85.82;98490.02;78270;1299;3026267;-65
2024/02/09 19:43:50;;;;;;;12.50;6.20;;;;;;;2.69;85.17;98487.55;79496;1300;3011628;-64
2024/02/09 19:46:24;;;;;;;11.10;7.00;;;;;;;3.22;83.10;98487.59;78277;1302;3027149;-65
2024/02/09 19:48:51;;;;;;;12.90;7.20;;;;;;;3.34;82.46;98482.20;79360;1298;3011638;-65
2024/02/09 19:51:22;;;;;;;11.10;6.30;;;;;;;3.24;82.52;98481.61;78185;1295;3050662;-64
2024/02/09 19:53:49;;;;;;;9.90;6.70;;;;;;;2.87;82.79;98486.41;79621;1297;3011913;-64
2024/02/09 19:56:18;;;;;;;12.50;6.70;;;;;;;2.76;83.71;98501.94;78991;1300;3013746;-78
2024/02/09 19:58:45;;;;;;;11.90;7.00;;;;;;;2.59;84.24;98508.36;79648;1298;3018489;-70
2024/02/09 20:01:12;;;;;;;13.40;8.00;;;;;;;2.52;84.59;98516.81;79561;1298;3011662;-69
2024/02/09 20:03:41;;;;;;;12.10;7.70;;;;;;;2.36;85.08;98522.13;78226;1295;3026848;-71
2024/02/09 20:06:08;;;;;;;13.40;8.10;;;;;;;2.23;85.88;98516.15;79598;1295;3012764;-71
2024/02/09 20:08:36;;;;;;;10.40;5.40;;;;;;;2.08;86.40;98509.52;79545;1299;3011788;-66
2024/02/09 20:11:04;;;;;;;10.40;7.00;;;;;;;2.51;85.89;98514.08;78246;1300;3049483;-69
2024/02/09 20:13:31;;;;;;;14.10;6.70;;;;;;;3.03;83.87;98510.96;79329;1300;3013429;-71
2024/02/09 20:16:02;;;;;;;11.40;6.90;;;;;;;3.17;82.90;98510.47;79391;1297;3013236;-65
2024/02/09 20:18:31;;;;;;;13.30;7.50;;;;;;;3.08;82.70;98517.10;78335;1300;3053309;-68
2024/02/09 20:20:58;;;;;;;12.50;7.30;;;;;;;2.91;83.28;98519.25;79515;1295;3013140;-68
2024/02/09 20:23:26;;;;;;;12.40;7.90;;;;;;;2.71;83.80;98524.95;79609;1295;3013167;-66
2024/02/09 20:25:54;;;;;;;14.50;8.50;;;;;;;2.63;84.66;98524.45;78414;1300;3048205;-67
2024/02/09 20:28:21;;;;;;;15.80;8.10;;;;;;;2.51;84.96;98521.33;79560;1295;3013091;-68
2024/02/09 20:30:48;;;;;;;14.80;8.50;;;;;;;2.30;85.31;98529.30;79588;1297;3012966;-68
2024/02/09 20:33:18;;;;;;;12.80;7.90;;;;;;;2.23;85.93;98528.74;78518;1300;3026004;-68
2024/02/09 20:35:55;;;;;;;16.50;8.60;;;;;;;2.11;86.56;98533.55;79738;1297;3011569;-66
2024/02/09 20:38:24;;;;;;;12.70;6.10;;;;;;;2.03;87.35;98537.48;78419;1298;3052524;-66
2024/02/09 20:40:51;;;;;;;12.80;6.90;;;;;;;2.57;86.22;98522.45;79724;1295;3013499;-67
2024/02/09 20:43:24;;;;;;;13.50;7.30;;;;;;;3.19;83.78;98515.95;78875;1295;3012842;-64
2024/02/09 20:45:51;;;;;;;14.60;8.40;;;;;;;3.35;82.75;98516.93;79474;1298;3011900;-65
2024/02/09 20:48:22;;;;;;;13.50;8.30;;;;;;;3.32;82.69;98520.53;78856;1296;3011970;-66
2024/02/09 20:50:49;;;;;;;13.30;8.50;;;;;;;3.09;82.92;98527.13;79803;1296;3012524;-65
2024/02/09 20:53:18;;;;;;;14.80;8.50;;;;;;;2.93;83.54;98533.17;79503;1297;3012171;-66